首页
METAR-TAF:

METAR-TAF

机场 :

仙台機場

仙台, 日本

纬度: 38-08N, 经度: 140-55E, 海拔: 1米

当前天气观测

该预报发布于25分钟前的10:00 UTC
风速4节,风向东南,在东转东北南转南东之间变化
温度 29°C
湿度 79%
气压 1006 hPa
能见度10公里或以上
少量云层高于3000英尺
散云层高于8000英尺
多云

METAR: RJSS 221000Z 13004KT 060V160 9999 FEW030 SCT080 BKN/// 29/25 Q1006

时间: 19:25 (10:25 UTC)

预报

该预报发布于2小时和44分钟前的07:41 UTC
预报有效从22日的 07点(UTC)到 23日的 12点(UTC)
风速6节,风向东南
能见度10公里或以上
少量云层高于4000英尺
成为
从 22日的 09点(UTC)到 22日的 11点(UTC)
风速4节,风向西转西南
成为
从 22日的 21点(UTC)到 23日的 00点(UTC)
风速8节,风向东转东南
短暂存在
从 23日的 09点(UTC)到 23日的 12点(UTC)
少量云层高于500英尺
多云层高于800英尺
多云层高于1500英尺

TAF: RJSS 220741Z 2207/2312 14006KT 9999 FEW040 BECMG 2209/2211 24004KT BECMG 2221/2300 12008KT TEMPO 2309/2312 FEW005 BKN008 BKN015

超过4000个机场的气象观测和天气预报(METAR&TAF报告)。

可查询的气象台以黄色和红色小点在地图上表示。

将鼠标移到小点上方,可查看气象台名称。

然后点击查看天气观测和预报。

如需切换地图:点击带黑十字的绿色按钮放大地图;点击带横线的绿色按钮缩小地图;或者点击绿色箭头查看邻近地区的地图。


METAR-TAF: